Time;durP1;ratioP1;P1;durP2;ratioP2;P2;SDS_P1;SDS_P2;PMS_P1;PMS_P2;Temp;Humidity;BMP_temperature;BMP_pressure;BME280_temperature;BME280_humidity;BME280_pressure;Samples;Min_cycle;Max_cycle;Signal;HPM_P1;HPM_P2
2021/11/28 00:00:47;;;;;;;12.25;7.43;;;;;11.60;99256.00;;;;5088203;28;20222;-81
2021/11/28 00:03:16;;;;;;;12.02;6.88;;;;;11.60;99252.00;;;;5088273;28;20205;-81
2021/11/28 00:05:49;;;;;;;10.48;7.20;;;;;11.60;99260.00;;;;5087847;28;20190;-83
2021/11/28 00:08:25;;;;;;;9.40;6.25;;;;;11.60;99262.00;;;;5092259;28;20679;-81
2021/11/28 00:10:59;;;;;;;10.07;7.22;;;;;11.60;99259.00;;;;5099764;28;20215;-82
2021/11/28 00:13:45;;;;;;;11.10;7.40;;;;;11.60;99262.00;;;;5088163;28;22127;-82
2021/11/28 00:16:13;;;;;;;10.40;6.03;;;;;11.60;99260.00;;;;5088104;28;20202;-82
2021/11/28 00:18:40;;;;;;;14.07;7.22;;;;;11.60;99265.00;;;;5087735;28;20754;-81
2021/11/28 00:21:07;;;;;;;10.05;6.70;;;;;11.60;99267.00;;;;5092093;28;20217;-81
2021/11/28 00:23:35;;;;;;;10.80;7.35;;;;;11.60;99266.00;;;;5092084;28;20209;-82
2021/11/28 00:26:05;;;;;;;11.57;6.88;;;;;11.60;99265.00;;;;5092249;28;20202;-81
2021/11/28 00:28:32;;;;;;;9.45;6.57;;;;;11.60;99269.00;;;;5096272;28;20206;-82
2021/11/28 00:30:59;;;;;;;10.95;7.03;;;;;11.60;99268.00;;;;5100244;28;20209;-82
2021/11/28 00:33:27;;;;;;;10.25;6.85;;;;;11.60;99277.00;;;;5094227;28;20218;-82
2021/11/28 00:35:54;;;;;;;12.98;7.18;;;;;11.60;99282.00;;;;5092034;28;20198;-81
2021/11/28 00:38:21;;;;;;;12.85;7.72;;;;;11.60;99284.00;;;;5097456;28;20201;-81
2021/11/28 00:40:49;;;;;;;13.50;7.70;;;;;11.60;99281.00;;;;5110680;28;20213;-82
2021/11/28 00:43:18;;;;;;;11.57;7.20;;;;;11.60;99272.00;;;;5097260;28;20206;-81
2021/11/28 00:45:46;;;;;;;12.05;7.72;;;;;11.60;99280.00;;;;5108616;28;20190;-82
2021/11/28 00:48:13;;;;;;;10.85;7.55;;;;;11.60;99282.00;;;;5100159;28;20609;-82
2021/11/28 00:50:45;;;;;;;12.30;7.75;;;;;11.60;99278.00;;;;5110031;28;20205;-81
2021/11/28 00:53:13;;;;;;;14.05;8.27;;;;;11.60;99281.00;;;;5090561;28;20267;-81
2021/11/28 00:55:41;;;;;;;12.68;6.93;;;;;11.60;99282.00;;;;5092469;28;20195;-81
2021/11/28 00:58:08;;;;;;;16.23;7.55;;;;;11.60;99280.00;;;;5099483;28;20190;-81
2021/11/28 01:00:38;;;;;;;11.57;7.32;;;;;11.50;99284.00;;;;5090530;28;20218;-82
2021/11/28 01:03:05;;;;;;;16.83;8.85;;;;;11.60;99286.00;;;;5104900;28;20566;-82
2021/11/28 01:05:33;;;;;;;13.25;7.95;;;;;11.50;99294.00;;;;5107782;28;20208;-81
2021/11/28 01:08:00;;;;;;;12.10;7.35;;;;;11.50;99296.00;;;;5094403;28;20193;-82
2021/11/28 01:10:28;;;;;;;12.50;7.68;;;;;11.50;99296.00;;;;5110377;28;20193;-81
2021/11/28 01:12:55;;;;;;;13.10;7.20;;;;;11.50;99305.00;;;;5101913;28;20206;-81
2021/11/28 01:15:23;;;;;;;14.52;8.60;;;;;11.50;99297.00;;;;5090889;28;20231;-82
2021/11/28 01:17:51;;;;;;;13.40;8.23;;;;;11.50;99314.00;;;;5091449;28;20233;-82
2021/11/28 01:20:19;;;;;;;13.43;8.02;;;;;11.50;99315.00;;;;5090825;28;20672;-82
2021/11/28 01:22:46;;;;;;;12.82;7.00;;;;;11.50;99321.00;;;;5090041;28;20206;-82
2021/11/28 01:25:15;;;;;;;13.15;7.93;;;;;11.50;99324.00;;;;5089382;28;20786;-82
2021/11/28 01:27:44;;;;;;;13.60;7.75;;;;;11.50;99327.00;;;;5091079;28;20201;-82
2021/11/28 01:30:12;;;;;;;14.20;8.70;;;;;11.50;99332.00;;;;5105732;28;20201;-82
2021/11/28 01:32:40;;;;;;;13.75;8.57;;;;;11.50;99338.00;;;;5104020;28;20205;-82
2021/11/28 01:35:12;;;;;;;12.88;8.07;;;;;11.50;99336.00;;;;5107754;28;20194;-82
2021/11/28 01:37:40;;;;;;;12.50;7.05;;;;;11.50;99332.00;;;;5090711;28;20201;-81
2021/11/28 01:40:11;;;;;;;12.73;7.68;;;;;11.40;99350.00;;;;5090800;28;20733;-81
2021/11/28 01:42:41;;;;;;;11.38;7.60;;;;;11.50;99358.00;;;;5096513;28;20205;-82
2021/11/28 01:45:12;;;;;;;11.00;7.25;;;;;11.40;99365.00;;;;5090775;28;20206;-82
2021/11/28 01:47:39;;;;;;;12.10;6.97;;;;;11.50;99367.00;;;;5089443;28;20202;-82
2021/11/28 01:50:09;;;;;;;12.88;7.20;;;;;11.50;99365.00;;;;5110154;28;20708;-81
2021/11/28 01:52:37;;;;;;;14.32;8.15;;;;;11.50;99365.00;;;;5099682;28;20226;-81
2021/11/28 01:55:06;;;;;;;10.82;6.95;;;;;11.40;99366.00;;;;5089857;28;20221;-81
2021/11/28 01:57:33;;;;;;;13.02;8.13;;;;;11.50;99362.00;;;;5099487;28;20197;-82
2021/11/28 02:00:03;;;;;;;10.68;7.05;;;;;11.40;99366.00;;;;5105887;28;20320;-82
2021/11/28 02:02:32;;;;;;;14.13;8.32;;;;;11.40;99364.00;;;;5103207;28;20186;-81
2021/11/28 02:05:00;;;;;;;13.40;7.97;;;;;11.40;99369.00;;;;5097617;28;20244;-81
2021/11/28 02:07:29;;;;;;;14.00;7.50;;;;;11.40;99363.00;;;;5089740;28;20252;-82
2021/11/28 02:09:57;;;;;;;12.55;7.80;;;;;11.40;99367.00;;;;5101255;28;20984;-82
2021/11/28 02:12:26;;;;;;;12.60;7.60;;;;;11.40;99367.00;;;;5102370;28;20201;-82
2021/11/28 02:14:53;;;;;;;14.13;7.15;;;;;11.40;99376.00;;;;5090671;28;20210;-82
2021/11/28 02:17:20;;;;;;;12.32;7.28;;;;;11.40;99376.00;;;;5089544;28;20194;-81
2021/11/28 02:19:48;;;;;;;12.27;7.20;;;;;11.40;99389.00;;;;5109431;28;20694;-82
2021/11/28 02:22:17;;;;;;;11.73;7.70;;;;;11.40;99383.00;;;;5105202;28;20214;-81
2021/11/28 02:24:44;;;;;;;15.25;8.32;;;;;11.40;99374.00;;;;5089594;28;20252;-82
2021/11/28 02:27:11;;;;;;;15.70;8.82;;;;;11.40;99380.00;;;;5091885;28;20203;-82
2021/11/28 02:29:40;;;;;;;13.32;8.27;;;;;11.40;99382.00;;;;5102777;28;20205;-82
2021/11/28 02:32:08;;;;;;;15.00;8.80;;;;;11.40;99388.00;;;;5099997;28;20214;-82
2021/11/28 02:34:36;;;;;;;15.00;8.13;;;;;11.40;99392.00;;;;5089660;28;20698;-82
2021/11/28 02:37:04;;;;;;;14.13;7.82;;;;;11.40;99386.00;;;;5091032;28;20213;-82
2021/11/28 02:39:34;;;;;;;14.40;8.77;;;;;11.40;99386.00;;;;5090562;28;20201;-81
2021/11/28 02:42:02;;;;;;;14.88;8.90;;;;;11.40;99384.00;;;;5096699;28;20259;-81
2021/11/28 02:44:33;;;;;;;14.15;8.43;;;;;11.40;99382.00;;;;5093651;28;20190;-81
2021/11/28 02:47:00;;;;;;;14.68;8.55;;;;;11.40;99389.00;;;;5089720;28;20190;-81
2021/11/28 02:49:28;;;;;;;11.45;7.20;;;;;11.40;99388.00;;;;5089861;28;20202;-82
2021/11/28 02:51:55;;;;;;;12.32;7.25;;;;;11.40;99387.00;;;;5089729;28;20222;-81
2021/11/28 02:54:22;;;;;;;14.45;8.00;;;;;11.40;99384.00;;;;5089270;28;20190;-81
2021/11/28 02:56:51;;;;;;;13.63;8.32;;;;;11.40;99386.00;;;;5089241;28;20209;-82
2021/11/28 02:59:18;;;;;;;12.55;8.23;;;;;11.40;99398.00;;;;5097010;28;20198;-81
2021/11/28 03:01:46;;;;;;;12.70;8.50;;;;;11.40;99393.00;;;;5101352;28;20250;-81
2021/11/28 03:04:13;;;;;;;12.90;7.90;;;;;11.40;99394.00;;;;5109417;28;20190;-81
2021/11/28 03:06:41;;;;;;;13.55;8.85;;;;;11.40;99396.00;;;;5089577;28;20201;-82
2021/11/28 03:09:08;;;;;;;13.55;8.15;;;;;11.40;99405.00;;;;5099158;28;20200;-81
2021/11/28 03:11:35;;;;;;;12.75;8.02;;;;;11.40;99405.00;;;;5091808;28;20246;-81
2021/11/28 03:14:04;;;;;;;13.38;8.60;;;;;11.30;99409.00;;;;5094740;28;20547;-82
2021/11/28 03:16:31;;;;;;;12.55;7.25;;;;;11.30;99407.00;;;;5092658;28;20213;-81
2021/11/28 03:18:59;;;;;;;13.07;8.07;;;;;11.30;99404.00;;;;5089094;28;20194;-82
2021/11/28 03:21:28;;;;;;;12.50;7.75;;;;;11.30;99405.00;;;;5097088;28;20221;-82
2021/11/28 03:23:58;;;;;;;11.90;7.70;;;;;11.30;99408.00;;;;5100847;28;20194;-82
2021/11/28 03:26:28;;;;;;;13.68;8.57;;;;;11.30;99410.00;;;;5088246;28;20193;-82
2021/11/28 03:28:57;;;;;;;13.43;8.27;;;;;11.30;99411.00;;;;5093014;28;20664;-81
2021/11/28 03:31:31;;;;;;;12.38;7.78;;;;;11.30;99413.00;;;;5088735;28;20217;-82
2021/11/28 03:33:58;;;;;;;14.63;8.63;;;;;11.30;99411.00;;;;5088568;28;20210;-82
2021/11/28 03:36:28;;;;;;;14.70;8.38;;;;;11.30;99406.00;;;;5094605;28;20193;-82
2021/11/28 03:38:56;;;;;;;13.88;8.68;;;;;11.30;99410.00;;;;5103311;28;20198;-82
2021/11/28 03:41:26;;;;;;;16.48;9.90;;;;;11.30;99410.00;;;;5095835;28;20217;-81
2021/11/28 03:43:57;;;;;;;15.10;8.88;;;;;11.30;99418.00;;;;5093096;28;20227;-82
2021/11/28 03:46:27;;;;;;;15.65;8.95;;;;;11.30;99417.00;;;;5103484;28;20201;-81
2021/11/28 03:48:54;;;;;;;14.07;9.18;;;;;11.30;99408.00;;;;5088507;28;20210;-81
2021/11/28 03:51:21;;;;;;;15.40;9.38;;;;;11.30;99410.00;;;;5088375;28;20218;-82
2021/11/28 03:53:49;;;;;;;13.90;8.70;;;;;11.30;99410.00;;;;5093297;28;20189;-81
2021/11/28 03:56:16;;;;;;;15.02;9.50;;;;;11.30;99399.00;;;;5095906;28;20209;-82
2021/11/28 03:58:43;;;;;;;15.52;8.98;;;;;11.30;99407.00;;;;5106946;28;20197;-81
2021/11/28 04:01:13;;;;;;;15.13;9.15;;;;;11.30;99409.00;;;;5095570;28;20692;-82
2021/11/28 04:03:41;;;;;;;15.02;8.85;;;;;11.30;99396.00;;;;5089119;28;20194;-82
2021/11/28 04:06:09;;;;;;;14.93;9.27;;;;;11.20;99390.00;;;;5088710;28;20208;-81
2021/11/28 04:08:36;;;;;;;14.10;8.82;;;;;11.20;99391.00;;;;5092344;28;20190;-81
2021/11/28 04:11:03;;;;;;;14.30;8.98;;;;;11.10;99393.00;;;;5096023;28;20198;-82
2021/11/28 04:13:31;;;;;;;13.23;8.07;;;;;11.10;99389.00;;;;5089079;28;20466;-81
2021/11/28 04:15:58;;;;;;;14.45;8.27;;;;;11.10;99388.00;;;;5089273;28;20197;-81
2021/11/28 04:18:25;;;;;;;13.57;8.23;;;;;11.00;99398.00;;;;5087737;28;20198;-82
2021/11/28 04:20:54;;;;;;;14.38;8.88;;;;;11.00;99405.00;;;;5088221;28;20292;-82
2021/11/28 04:23:21;;;;;;;14.10;8.63;;;;;11.00;99408.00;;;;5093287;28;20190;-82
2021/11/28 04:25:49;;;;;;;15.40;8.55;;;;;11.00;99401.00;;;;5095417;28;20201;-81
2021/11/28 04:28:16;;;;;;;14.15;9.13;;;;;10.90;99405.00;;;;5095746;28;20202;-81
2021/11/28 04:30:44;;;;;;;14.70;9.60;;;;;10.90;99403.00;;;;5089704;28;20213;-82
2021/11/28 04:33:11;;;;;;;16.77;9.23;;;;;10.90;99408.00;;;;5107203;28;20225;-81
2021/11/28 04:35:38;;;;;;;13.43;8.07;;;;;10.90;99412.00;;;;5095208;28;20195;-81
2021/11/28 04:38:07;;;;;;;14.48;8.70;;;;;10.90;99420.00;;;;5088333;28;20202;-81
2021/11/28 04:40:34;;;;;;;15.80;9.57;;;;;10.90;99417.00;;;;5090411;28;20206;-81
2021/11/28 04:43:01;;;;;;;13.25;8.60;;;;;10.90;99421.00;;;;5097130;28;20274;-81
2021/11/28 04:45:29;;;;;;;14.98;8.90;;;;;10.80;99424.00;;;;5096362;28;20194;-82
2021/11/28 04:47:57;;;;;;;14.45;9.27;;;;;10.90;99423.00;;;;5088247;28;20206;-81
2021/11/28 04:50:24;;;;;;;16.42;9.02;;;;;10.80;99425.00;;;;5098619;28;20212;-81
2021/11/28 04:52:51;;;;;;;15.40;9.13;;;;;10.80;99416.00;;;;5091529;28;20221;-81
2021/11/28 04:55:20;;;;;;;13.70;8.38;;;;;10.80;99412.00;;;;5087167;28;20777;-82
2021/11/28 04:57:47;;;;;;;15.77;9.82;;;;;10.80;99412.00;;;;5094718;28;20206;-81
2021/11/28 05:00:19;;;;;;;14.00;9.20;;;;;10.70;99410.00;;;;5088029;28;20199;-81
2021/11/28 05:02:46;;;;;;;13.75;8.55;;;;;10.70;99408.00;;;;5096771;28;20714;-82
2021/11/28 05:05:14;;;;;;;14.85;9.20;;;;;10.70;99414.00;;;;5095155;27;20219;-81
2021/11/28 05:07:42;;;;;;;15.77;8.57;;;;;10.70;99409.00;;;;5108270;28;20296;-81
2021/11/28 05:10:12;;;;;;;15.10;8.23;;;;;10.60;99416.00;;;;5093452;28;20202;-81
2021/11/28 05:12:41;;;;;;;12.00;7.75;;;;;10.60;99409.00;;;;5092257;28;20198;-81
2021/11/28 05:15:09;;;;;;;12.52;8.20;;;;;10.60;99420.00;;;;5090570;28;20202;-81
2021/11/28 05:17:36;;;;;;;13.43;8.13;;;;;10.50;99415.00;;;;5090877;28;20195;-82
2021/11/28 05:20:05;;;;;;;14.85;9.25;;;;;10.50;99423.00;;;;5092859;28;20205;-82
2021/11/28 05:22:33;;;;;;;13.93;8.23;;;;;10.50;99417.00;;;;5094013;28;20320;-82
2021/11/28 05:25:00;;;;;;;15.43;9.43;;;;;10.50;99432.00;;;;5093847;28;20614;-81
2021/11/28 05:27:28;;;;;;;20.48;9.75;;;;;10.40;99439.00;;;;5095208;28;20193;-82
2021/11/28 05:29:56;;;;;;;18.23;8.85;;;;;10.40;99448.00;;;;5106473;28;20194;-82
2021/11/28 05:32:24;;;;;;;15.70;9.45;;;;;10.30;99446.00;;;;5094360;28;20300;-82
2021/11/28 05:34:51;;;;;;;16.92;9.38;;;;;10.30;99452.00;;;;5107027;28;20198;-82
2021/11/28 05:37:19;;;;;;;15.23;7.78;;;;;10.30;99462.00;;;;5091009;28;20205;-82
2021/11/28 05:39:46;;;;;;;13.77;7.25;;;;;10.30;99460.00;;;;5090126;28;20241;-82
2021/11/28 05:42:13;;;;;;;12.85;8.07;;;;;10.30;99466.00;;;;5093506;28;20213;-81
2021/11/28 05:44:41;;;;;;;18.05;8.75;;;;;10.20;99468.00;;;;5109709;28;20194;-82
2021/11/28 05:47:09;;;;;;;17.02;7.72;;;;;10.20;99468.00;;;;5090796;28;20198;-82
2021/11/28 05:49:37;;;;;;;17.60;7.85;;;;;10.20;99468.00;;;;5094064;28;20228;-81
2021/11/28 05:52:05;;;;;;;10.75;6.90;;;;;10.10;99469.00;;;;5092080;28;20226;-82
2021/11/28 05:54:32;;;;;;;22.17;8.07;;;;;10.10;99480.00;;;;5101916;28;20204;-82
2021/11/28 05:56:59;;;;;;;11.50;7.22;;;;;10.10;99480.00;;;;5097957;28;20216;-82
2021/11/28 05:59:27;;;;;;;12.30;8.00;;;;;10.10;99480.00;;;;5089717;28;20198;-82
2021/11/28 06:01:55;;;;;;;10.82;6.65;;;;;10.10;99482.00;;;;5090756;28;20264;-81
2021/11/28 06:04:23;;;;;;;12.60;7.32;;;;;10.00;99483.00;;;;5090352;28;20201;-81
2021/11/28 06:06:50;;;;;;;10.70;6.20;;;;;10.00;99495.00;;;;5097566;28;20189;-82
2021/11/28 06:09:19;;;;;;;9.40;6.15;;;;;10.00;99487.00;;;;5102311;28;20193;-81
2021/11/28 06:11:46;;;;;;;9.60;6.32;;;;;10.00;99491.00;;;;5103677;28;20206;-82
2021/11/28 06:14:13;;;;;;;14.40;6.82;;;;;10.00;99492.00;;;;5097761;28;20567;-81
2021/11/28 06:16:40;;;;;;;10.82;6.15;;;;;10.00;99496.00;;;;5093579;28;20202;-81
2021/11/28 06:19:08;;;;;;;11.20;7.07;;;;;9.90;99496.00;;;;5103266;28;20686;-81
2021/11/28 06:21:36;;;;;;;10.70;6.53;;;;;9.90;99497.00;;;;5110623;28;20618;-82
2021/11/28 06:24:04;;;;;;;10.25;6.28;;;;;9.90;99494.00;;;;5098377;28;20210;-82
2021/11/28 06:26:31;;;;;;;9.25;6.03;;;;;9.80;99499.00;;;;5090294;28;20216;-81
2021/11/28 06:28:58;;;;;;;9.90;6.65;;;;;9.80;99494.00;;;;5101496;28;20198;-83
2021/11/28 06:31:26;;;;;;;10.13;6.25;;;;;9.80;99500.00;;;;5095391;28;20190;-82
2021/11/28 06:33:53;;;;;;;9.30;6.00;;;;;9.70;99499.00;;;;5101951;28;20212;-81
2021/11/28 06:36:20;;;;;;;11.35;6.45;;;;;9.70;99500.00;;;;5095830;28;20199;-82
2021/11/28 06:38:49;;;;;;;13.63;6.70;;;;;9.60;99504.00;;;;5092434;28;20283;-82
2021/11/28 06:41:16;;;;;;;16.48;5.28;;;;;9.60;99504.00;;;;5108290;28;20698;-82
2021/11/28 06:43:43;;;;;;;7.95;5.05;;;;;9.60;99510.00;;;;5094176;28;20229;-82
2021/11/28 06:46:11;;;;;;;8.98;5.95;;;;;9.50;99506.00;;;;5104008;28;20230;-82
2021/11/28 06:48:38;;;;;;;10.88;6.32;;;;;9.50;99514.00;;;;5089375;28;20198;-82
2021/11/28 06:51:05;;;;;;;8.05;5.05;;;;;9.40;99524.00;;;;5099661;28;20205;-82
2021/11/28 06:53:33;;;;;;;9.13;5.78;;;;;9.40;99521.00;;;;5101664;28;20209;-81
2021/11/28 06:56:03;;;;;;;8.98;5.38;;;;;9.40;99529.00;;;;5099178;28;20217;-81
2021/11/28 06:58:31;;;;;;;8.13;5.25;;;;;9.30;99526.00;;;;5099810;28;20440;-82
2021/11/28 07:00:59;;;;;;;9.15;6.22;;;;;9.30;99525.00;;;;5099431;28;20201;-82
2021/11/28 07:03:26;;;;;;;9.13;5.75;;;;;9.30;99529.00;;;;5098314;28;20221;-81
2021/11/28 07:05:54;;;;;;;9.48;5.45;;;;;9.30;99528.00;;;;5101105;28;20213;-83
2021/11/28 07:08:21;;;;;;;8.80;5.57;;;;;9.20;99538.00;;;;5109046;28;20196;-83
2021/11/28 07:10:49;;;;;;;9.02;5.60;;;;;9.20;99537.00;;;;5105143;28;20201;-82
2021/11/28 07:13:18;;;;;;;8.00;5.00;;;;;9.20;99545.00;;;;5090087;28;20247;-83
2021/11/28 07:15:46;;;;;;;9.88;5.80;;;;;9.20;99553.00;;;;5095961;28;20198;-83
2021/11/28 07:18:13;;;;;;;8.35;5.78;;;;;9.30;99555.00;;;;5096682;28;20676;-83
2021/11/28 07:20:40;;;;;;;8.38;5.45;;;;;9.30;99553.00;;;;5092849;28;20198;-83
2021/11/28 07:23:08;;;;;;;8.02;5.00;;;;;9.30;99552.00;;;;5095254;28;20711;-83
2021/11/28 07:25:35;;;;;;;8.23;5.53;;;;;9.30;99560.00;;;;5099047;28;20645;-83
2021/11/28 07:28:03;;;;;;;8.80;5.80;;;;;9.30;99554.00;;;;5091139;28;20204;-83
2021/11/28 07:30:32;;;;;;;8.65;5.28;;;;;9.30;99563.00;;;;5093963;28;20213;-83
2021/11/28 07:32:59;;;;;;;8.63;5.70;;;;;9.40;99562.00;;;;5096401;28;20217;-83
2021/11/28 07:35:26;;;;;;;9.80;6.60;;;;;9.40;99565.00;;;;5102446;28;20198;-82
2021/11/28 07:37:54;;;;;;;9.20;5.57;;;;;9.40;99565.00;;;;5093706;28;20572;-83
2021/11/28 07:40:21;;;;;;;10.43;6.30;;;;;9.50;99566.00;;;;5097510;28;20200;-83
2021/11/28 07:42:48;;;;;;;8.10;5.50;;;;;9.50;99571.00;;;;5090260;28;20214;-83
2021/11/28 07:45:16;;;;;;;7.93;4.65;;;;;9.50;99566.00;;;;5087576;28;20194;-83
2021/11/28 07:47:44;;;;;;;8.48;4.93;;;;;9.50;99570.00;;;;5086437;28;20194;-83
2021/11/28 07:50:12;;;;;;;7.65;4.88;;;;;9.50;99574.00;;;;5091034;28;20197;-83
2021/11/28 07:52:39;;;;;;;9.23;5.95;;;;;9.50;99577.00;;;;5088482;28;20230;-83
2021/11/28 07:55:07;;;;;;;7.90;5.20;;;;;9.50;99576.00;;;;5093722;28;20194;-84
2021/11/28 07:57:35;;;;;;;7.88;5.03;;;;;9.50;99577.00;;;;5088806;28;20198;-83
2021/11/28 08:00:02;;;;;;;9.75;5.38;;;;;9.50;99573.00;;;;5091800;28;20221;-83
2021/11/28 08:02:29;;;;;;;7.63;5.00;;;;;9.50;99581.00;;;;5088972;28;20703;-83
2021/11/28 08:04:58;;;;;;;7.78;4.90;;;;;9.50;99584.00;;;;5091170;28;20202;-84
2021/11/28 08:07:25;;;;;;;9.75;5.57;;;;;9.50;99578.00;;;;5091047;28;20567;-83
2021/11/28 08:09:53;;;;;;;8.35;5.05;;;;;9.60;99590.00;;;;5087662;28;20204;-83
2021/11/28 08:12:21;;;;;;;7.55;5.03;;;;;9.60;99592.00;;;;5091866;28;20201;-83
2021/11/28 08:14:48;;;;;;;6.63;4.50;;;;;9.60;99599.00;;;;5089338;28;20198;-83
2021/11/28 08:17:16;;;;;;;9.48;5.97;;;;;9.70;99598.00;;;;5089846;28;20205;-83
2021/11/28 08:19:43;;;;;;;9.00;5.70;;;;;9.70;99605.00;;;;5093079;28;20221;-83
2021/11/28 08:22:12;;;;;;;9.20;5.97;;;;;9.70;99615.00;;;;5098820;28;20204;-82
2021/11/28 08:24:39;;;;;;;9.73;5.78;;;;;9.80;99618.00;;;;5089362;28;20213;-83
2021/11/28 08:27:07;;;;;;;9.77;6.28;;;;;9.80;99615.00;;;;5096142;28;20198;-82
2021/11/28 08:29:34;;;;;;;9.38;5.75;;;;;9.90;99609.00;;;;5096923;28;20225;-83
2021/11/28 08:32:02;;;;;;;9.80;5.78;;;;;10.00;99623.00;;;;5096193;28;20230;-83
2021/11/28 08:34:29;;;;;;;12.30;6.32;;;;;10.10;99621.00;;;;5096744;28;20190;-82
2021/11/28 08:36:56;;;;;;;10.02;6.38;;;;;10.20;99625.00;;;;5104505;28;20205;-82
2021/11/28 08:39:25;;;;;;;9.57;5.95;;;;;10.20;99630.00;;;;5095885;28;20213;-82
2021/11/28 08:41:52;;;;;;;10.48;6.38;;;;;10.30;99629.00;;;;5104241;28;20668;-82
2021/11/28 08:44:20;;;;;;;8.88;5.15;;;;;10.40;99627.00;;;;5100060;28;20233;-82
2021/11/28 08:46:48;;;;;;;11.13;6.60;;;;;10.50;99629.00;;;;5108332;28;20206;-82
2021/11/28 08:49:15;;;;;;;10.75;6.05;;;;;10.50;99631.00;;;;5107084;28;20224;-83
2021/11/28 08:51:42;;;;;;;9.80;5.85;;;;;10.50;99630.00;;;;5112143;28;20278;-85
2021/11/28 08:54:13;;;;;;;9.00;5.55;;;;;10.60;99636.00;;;;5101509;28;20214;-83
2021/11/28 08:56:43;;;;;;;11.13;6.40;;;;;10.70;99630.00;;;;5096946;28;20201;-84
2021/11/28 08:59:11;;;;;;;9.13;6.03;;;;;10.80;99625.00;;;;5099370;28;20194;-84
2021/11/28 09:01:38;;;;;;;11.73;6.25;;;;;10.80;99635.00;;;;5091158;28;20209;-83
2021/11/28 09:04:06;;;;;;;10.90;6.65;;;;;10.90;99634.00;;;;5096260;28;20229;-83
2021/11/28 09:06:33;;;;;;;10.73;6.68;;;;;11.00;99636.00;;;;5097334;28;20209;-81
2021/11/28 09:09:01;;;;;;;10.50;6.53;;;;;11.00;99636.00;;;;5095151;28;20213;-82
2021/11/28 09:11:28;;;;;;;11.52;6.95;;;;;11.10;99633.00;;;;5093078;28;20194;-83
2021/11/28 09:13:58;;;;;;;12.23;7.72;;;;;11.20;99643.00;;;;5097355;28;20232;-82
2021/11/28 09:16:25;;;;;;;11.73;7.55;;;;;11.30;99645.00;;;;5095891;28;20202;-83
2021/11/28 09:18:56;;;;;;;13.73;7.88;;;;;11.40;99649.00;;;;5100101;28;20197;-83
2021/11/28 09:21:23;;;;;;;12.57;6.97;;;;;11.40;99648.00;;;;5097829;28;21020;-82
2021/11/28 09:26:36;;;;;;;11.25;7.47;;;;;11.50;99653.00;;;;5093118;28;20220;-84
2021/11/28 09:29:05;;;;;;;13.00;7.65;;;;;11.50;99654.00;;;;5094180;27;20198;-86
2021/11/28 09:31:32;;;;;;;12.25;7.18;;;;;11.50;99660.00;;;;5099636;28;20197;-84
2021/11/28 09:34:01;;;;;;;13.32;8.43;;;;;11.50;99656.00;;;;5098071;28;20205;-82
2021/11/28 09:36:29;;;;;;;14.00;8.38;;;;;11.60;99664.00;;;;5108442;28;20668;-83
2021/11/28 09:38:56;;;;;;;12.68;7.15;;;;;11.60;99664.00;;;;5108620;28;22306;-82
2021/11/28 09:41:25;;;;;;;12.05;7.47;;;;;11.60;99662.00;;;;5099863;28;20218;-83
2021/11/28 09:43:56;;;;;;;15.38;8.38;;;;;11.60;99666.00;;;;5109639;28;20221;-82
2021/11/28 09:46:26;;;;;;;13.25;8.00;;;;;11.70;99667.00;;;;5091130;28;20244;-83
2021/11/28 09:48:59;;;;;;;13.35;8.18;;;;;11.70;99670.00;;;;5105155;28;20194;-82
2021/11/28 09:51:28;;;;;;;12.57;8.02;;;;;11.80;99672.00;;;;5090315;28;20232;-84
2021/11/28 09:53:57;;;;;;;15.82;9.05;;;;;11.80;99673.00;;;;5092978;28;20680;-86
2021/11/28 09:56:26;;;;;;;13.18;8.43;;;;;11.80;99663.00;;;;5095160;28;20693;-84
2021/11/28 09:58:54;;;;;;;15.60;9.50;;;;;11.90;99663.00;;;;5106687;28;20200;-82
2021/11/28 10:01:21;;;;;;;14.27;8.10;;;;;11.90;99669.00;;;;5094906;28;20285;-82
2021/11/28 10:03:50;;;;;;;11.65;6.93;;;;;11.90;99660.00;;;;5099720;28;20235;-82
2021/11/28 10:06:19;;;;;;;13.27;7.43;;;;;12.00;99666.00;;;;5108088;28;20186;-82
2021/11/28 10:08:48;;;;;;;10.43;6.68;;;;;12.00;99658.00;;;;5091555;28;20620;-83
2021/11/28 10:11:48;;;;;;;10.45;6.97;;;;;11.90;99659.00;;;;5110085;28;20198;-83
2021/11/28 10:14:16;;;;;;;9.23;6.15;;;;;12.00;99666.00;;;;5082210;28;20218;-84
2021/11/28 10:16:43;;;;;;;9.38;5.43;;;;;12.00;99662.00;;;;5091347;28;20202;-82
2021/11/28 10:19:12;;;;;;;10.73;5.53;;;;;12.00;99661.00;;;;5101652;28;20659;-83
2021/11/28 10:21:39;;;;;;;8.77;6.10;;;;;12.00;99667.00;;;;5092468;28;20199;-86
2021/11/28 10:24:09;;;;;;;7.55;4.95;;;;;12.00;99661.00;;;;5093611;27;20225;-84
2021/11/28 10:26:38;;;;;;;6.80;4.68;;;;;12.00;99661.00;;;;5097645;28;20202;-84
2021/11/28 10:29:13;;;;;;;5.85;4.28;;;;;11.90;99665.00;;;;5100500;28;20222;-85
2021/11/28 10:31:45;;;;;;;7.45;4.47;;;;;11.90;99656.00;;;;5091338;28;20197;-85
2021/11/28 10:34:19;;;;;;;6.88;4.13;;;;;11.90;99661.00;;;;5091438;28;20529;-85
2021/11/28 10:36:47;;;;;;;5.22;3.47;;;;;11.90;99664.00;;;;5093193;28;20281;-86
2021/11/28 10:39:17;;;;;;;5.68;3.15;;;;;12.00;99654.00;;;;5098532;28;20194;-86
2021/11/28 10:41:54;;;;;;;4.68;3.22;;;;;11.90;99656.00;;;;5097808;28;20194;-86
2021/11/28 10:44:26;;;;;;;4.10;2.60;;;;;12.00;99650.00;;;;5093413;28;20228;-86
2021/11/28 10:47:09;;;;;;;4.78;2.92;;;;;12.00;99656.00;;;;5104539;28;20197;-86
2021/11/28 10:49:42;;;;;;;3.95;2.53;;;;;12.10;99655.00;;;;5091145;28;20209;-84
2021/11/28 10:52:11;;;;;;;3.75;2.35;;;;;12.10;99659.00;;;;5088634;28;20260;-85
2021/11/28 10:54:44;;;;;;;4.30;2.28;;;;;12.20;99645.00;;;;5097269;28;20198;-85
2021/11/28 10:57:23;;;;;;;3.00;1.95;;;;;12.20;99649.00;;;;5098333;28;20686;-85
2021/11/28 10:59:58;;;;;;;3.35;2.22;;;;;12.20;99639.00;;;;5096827;27;20198;-84
2021/11/28 11:02:28;;;;;;;3.58;2.33;;;;;12.30;99646.00;;;;5105663;28;20201;-83
2021/11/28 11:04:58;;;;;;;2.95;1.70;;;;;12.30;99650.00;;;;5109054;28;20225;-83
2021/11/28 11:07:30;;;;;;;2.83;1.77;;;;;12.30;99646.00;;;;5095226;28;20194;-85
2021/11/28 11:10:01;;;;;;;3.13;1.30;;;;;12.40;99653.00;;;;5102843;28;20192;-83
2021/11/28 11:12:32;;;;;;;2.50;1.58;;;;;12.40;99647.00;;;;5092631;28;20194;-83
2021/11/28 11:15:00;;;;;;;1.05;0.82;;;;;12.40;99657.00;;;;5088973;28;20731;-82
2021/11/28 11:17:31;;;;;;;1.60;1.10;;;;;12.40;99658.00;;;;5099566;28;20198;-83
2021/11/28 11:20:01;;;;;;;0.90;0.52;;;;;12.30;99651.00;;;;5097792;28;20224;-82
2021/11/28 11:22:30;;;;;;;1.33;0.77;;;;;12.40;99658.00;;;;5096218;28;20190;-80
2021/11/28 11:25:00;;;;;;;2.42;0.70;;;;;12.30;99664.00;;;;5089689;28;20225;-79
2021/11/28 11:27:30;;;;;;;0.68;0.38;;;;;12.30;99664.00;;;;5089534;28;20197;-79
2021/11/28 11:30:00;;;;;;;1.08;0.52;;;;;12.30;99670.00;;;;5089142;28;20186;-80
2021/11/28 11:32:41;;;;;;;0.50;0.25;;;;;12.20;99675.00;;;;5089292;28;20214;-79
2021/11/28 11:35:14;;;;;;;0.30;0.30;;;;;12.30;99673.00;;;;5104055;28;20201;-79
2021/11/28 11:37:42;;;;;;;0.38;0.20;;;;;12.40;99674.00;;;;5095264;28;20198;-80
2021/11/28 11:40:11;;;;;;;0.50;0.30;;;;;12.40;99690.00;;;;5097728;28;20197;-80
2021/11/28 11:42:40;;;;;;;0.45;0.25;;;;;12.40;99692.00;;;;5098414;27;20243;-80
2021/11/28 11:45:10;;;;;;;0.85;0.35;;;;;12.40;99686.00;;;;5098187;27;20236;-79
2021/11/28 11:47:39;;;;;;;0.20;0.10;;;;;12.40;99685.00;;;;5102404;28;20185;-80
2021/11/28 11:50:10;;;;;;;0.68;0.20;;;;;12.40;99691.00;;;;5095487;28;20563;-84
2021/11/28 11:52:38;;;;;;;0.40;0.10;;;;;12.40;99691.00;;;;5097603;28;20224;-81
2021/11/28 11:55:09;;;;;;;0.28;0.10;;;;;12.40;99695.00;;;;5094491;28;20201;-80
2021/11/28 11:57:45;;;;;;;0.47;0.10;;;;;12.30;99697.00;;;;5104020;28;20220;-80
2021/11/28 12:00:19;;;;;;;0.40;0.10;;;;;12.30;99696.00;;;;5104229;28;20198;-80
2021/11/28 12:02:49;;;;;;;0.05;0.05;;;;;12.30;99697.00;;;;5088507;28;20190;-80
2021/11/28 12:05:36;;;;;;;0.47;0.30;;;;;12.20;99692.00;;;;5087725;28;20255;-80
2021/11/28 12:08:08;;;;;;;1.25;0.50;;;;;12.20;99699.00;;;;5088158;28;20613;-80
2021/11/28 12:10:39;;;;;;;0.70;0.40;;;;;12.20;99695.00;;;;5092900;28;20198;-80
2021/11/28 12:13:09;;;;;;;0.35;0.20;;;;;12.20;99693.00;;;;5088844;28;20548;-80
2021/11/28 12:15:37;;;;;;;0.50;0.20;;;;;12.20;99691.00;;;;5090662;28;20664;-80
2021/11/28 12:18:06;;;;;;;0.47;0.25;;;;;12.10;99699.00;;;;5093077;28;20212;-80
2021/11/28 12:20:57;;;;;;;1.50;0.25;;;;;12.00;99693.00;;;;5092987;28;20212;-79
2021/11/28 12:24:04;;;;;;;0.52;0.15;;;;;11.90;99693.00;;;;5091848;28;20346;-81